createdAt,value
2022-12-11T00:01:18.291Z,1.40
2022-12-11T00:03:47.042Z,1.50
2022-12-11T00:06:16.551Z,1.50
2022-12-11T00:08:44.882Z,1.60
2022-12-11T00:11:14.111Z,1.60
2022-12-11T00:13:41.914Z,1.60
2022-12-11T00:16:10.563Z,1.60
2022-12-11T00:18:38.244Z,1.60
2022-12-11T00:21:08.321Z,1.60
2022-12-11T00:23:36.961Z,1.60
2022-12-11T00:26:15.931Z,1.60
2022-12-11T00:28:45.011Z,1.50
2022-12-11T00:31:18.174Z,1.60
2022-12-11T00:33:46.662Z,1.60
2022-12-11T00:36:17.470Z,1.60
2022-12-11T00:38:45.202Z,1.50
2022-12-11T00:41:13.211Z,1.50
2022-12-11T00:43:40.871Z,1.50
2022-12-11T00:46:08.351Z,1.30
2022-12-11T00:48:36.222Z,1.20
2022-12-11T00:51:03.731Z,1.10
2022-12-11T00:53:31.253Z,1.00
2022-12-11T00:55:58.731Z,1.10
2022-12-11T00:58:26.222Z,1.00
2022-12-11T01:00:54.702Z,1.00
2022-12-11T01:03:22.342Z,0.90
2022-12-11T01:05:55.841Z,1.00
2022-12-11T01:08:23.510Z,1.00
2022-12-11T01:10:51.723Z,1.00
2022-12-11T01:13:19.171Z,1.00
2022-12-11T01:15:46.723Z,1.00
2022-12-11T01:18:16.165Z,1.00
2022-12-11T01:20:44.010Z,1.10
2022-12-11T01:23:13.495Z,1.10
2022-12-11T01:25:41.583Z,1.10
2022-12-11T01:28:09.936Z,1.10
2022-12-11T01:30:37.918Z,1.20
2022-12-11T01:33:05.757Z,1.20
2022-12-11T01:35:36.336Z,1.20
2022-12-11T01:38:03.678Z,1.20
2022-12-11T01:40:31.045Z,1.20
2022-12-11T01:42:58.366Z,1.20
2022-12-11T01:45:32.495Z,1.20
2022-12-11T01:48:10.975Z,1.10
2022-12-11T01:51:00.183Z,1.10
2022-12-11T01:53:34.516Z,1.20
2022-12-11T01:56:02.356Z,1.20
2022-12-11T01:58:33.997Z,1.20
2022-12-11T02:01:03.436Z,1.20
2022-12-11T02:03:31.005Z,1.20
2022-12-11T02:06:02.547Z,1.20
2022-12-11T02:08:30.085Z,1.20
2022-12-11T02:11:16.127Z,1.20
2022-12-11T02:14:20.296Z,1.20
2022-12-11T02:16:57.926Z,1.20
2022-12-11T02:19:36.785Z,1.20
2022-12-11T02:22:10.922Z,1.10
2022-12-11T02:25:04.295Z,1.10
2022-12-11T02:27:48.908Z,1.10
2022-12-11T02:30:17.208Z,1.10
2022-12-11T02:32:53.246Z,1.10
2022-12-11T02:35:28.835Z,1.10
2022-12-11T02:38:02.005Z,1.10
2022-12-11T02:40:32.926Z,1.00
2022-12-11T02:43:03.827Z,1.00
2022-12-11T02:45:32.544Z,1.00
2022-12-11T02:48:03.197Z,1.00
2022-12-11T02:50:31.236Z,0.90
2022-12-11T02:52:59.855Z,0.80
2022-12-11T02:55:28.737Z,0.80
2022-12-11T02:58:17.695Z,0.80
2022-12-11T03:00:46.606Z,0.80
2022-12-11T03:03:14.360Z,0.80
2022-12-11T03:05:42.906Z,0.80
2022-12-11T03:08:10.566Z,0.90
2022-12-11T03:10:37.836Z,0.90
2022-12-11T03:13:05.437Z,0.90
2022-12-11T03:15:57.444Z,0.90
2022-12-11T03:18:27.408Z,0.90
2022-12-11T03:21:04.200Z,0.90
2022-12-11T03:23:38.224Z,0.90
2022-12-11T03:26:06.639Z,1.00
2022-12-11T03:28:48.668Z,1.00
2022-12-11T03:31:42.535Z,1.00
2022-12-11T03:34:28.608Z,1.00
2022-12-11T03:36:58.346Z,1.00
2022-12-11T03:39:37.086Z,1.00
2022-12-11T03:42:08.656Z,1.00
2022-12-11T03:44:37.225Z,1.10
2022-12-11T03:47:08.465Z,1.10
2022-12-11T03:49:39.467Z,1.10
2022-12-11T03:52:09.768Z,1.00
2022-12-11T03:54:38.147Z,1.00
2022-12-11T03:57:07.899Z,1.00
2022-12-11T03:59:35.146Z,1.10
2022-12-11T04:02:02.457Z,1.10
2022-12-11T04:04:29.754Z,1.10
2022-12-11T04:06:57.056Z,1.00
2022-12-11T04:09:24.245Z,1.00
2022-12-11T04:11:51.485Z,1.00
2022-12-11T04:14:37.347Z,1.00
2022-12-11T04:17:04.675Z,1.00
2022-12-11T04:19:50.145Z,1.00
2022-12-11T04:22:37.660Z,1.10
2022-12-11T04:25:07.649Z,1.10
2022-12-11T04:27:49.936Z,1.10
2022-12-11T04:30:23.575Z,1.10
2022-12-11T04:32:51.486Z,1.00
2022-12-11T04:35:19.099Z,1.10
2022-12-11T04:37:46.686Z,1.10
2022-12-11T04:40:17.386Z,1.10
2022-12-11T04:42:44.987Z,1.10
2022-12-11T04:45:13.203Z,1.00
2022-12-11T04:47:41.933Z,0.90
2022-12-11T04:50:11.147Z,0.80
2022-12-11T04:52:38.490Z,0.80
2022-12-11T04:55:07.554Z,0.80
2022-12-11T04:57:35.205Z,0.80
2022-12-11T05:00:04.756Z,0.70
2022-12-11T05:02:35.433Z,0.70
2022-12-11T05:05:04.394Z,0.60
2022-12-11T05:07:32.106Z,0.70
2022-12-11T05:09:59.377Z,0.60
2022-12-11T05:12:26.588Z,0.60
2022-12-11T05:14:54.985Z,0.60
2022-12-11T05:17:22.616Z,0.60
2022-12-11T05:19:51.369Z,0.60
2022-12-11T05:22:19.345Z,0.60
2022-12-11T05:24:46.678Z,0.70
2022-12-11T05:27:13.910Z,0.80
2022-12-11T05:29:41.226Z,0.80
2022-12-11T05:32:08.495Z,0.80
2022-12-11T05:34:35.735Z,0.80
2022-12-11T05:37:02.920Z,0.70
2022-12-11T05:39:30.365Z,0.70
2022-12-11T05:41:57.677Z,0.70
2022-12-11T05:44:25.716Z,0.70
2022-12-11T05:46:53.040Z,0.60
2022-12-11T05:49:20.731Z,0.60
2022-12-11T05:51:49.795Z,0.60
2022-12-11T05:54:17.625Z,0.60
2022-12-11T05:56:44.765Z,0.60
2022-12-11T05:59:12.035Z,0.60
2022-12-11T06:01:41.856Z,0.50
2022-12-11T06:04:11.405Z,0.50
2022-12-11T06:06:40.752Z,0.50
2022-12-11T06:09:08.336Z,0.50
2022-12-11T06:11:36.449Z,0.50
2022-12-11T06:14:04.415Z,0.50
2022-12-11T06:16:32.289Z,0.50
2022-12-11T06:18:59.795Z,0.40
2022-12-11T06:21:32.806Z,0.40
2022-12-11T06:24:02.855Z,0.40
2022-12-11T06:26:30.424Z,0.40
2022-12-11T06:28:57.956Z,0.40
2022-12-11T06:31:25.252Z,0.40
2022-12-11T06:33:52.526Z,0.30
2022-12-11T06:36:21.906Z,0.30
2022-12-11T06:38:49.674Z,0.30
2022-12-11T06:41:17.296Z,0.20
2022-12-11T06:43:44.670Z,0.30
2022-12-11T06:46:15.268Z,0.30
2022-12-11T06:48:43.364Z,0.30
2022-12-11T06:51:16.345Z,0.30
2022-12-11T06:53:44.289Z,0.30
2022-12-11T06:56:15.951Z,0.30
2022-12-11T06:58:44.297Z,0.40
2022-12-11T07:01:20.690Z,0.30
2022-12-11T07:03:48.298Z,0.30
2022-12-11T07:06:15.935Z,0.30
2022-12-11T07:08:43.778Z,0.40
2022-12-11T07:11:14.598Z,0.40
2022-12-11T07:13:42.377Z,0.40
2022-12-11T07:16:11.802Z,0.40
2022-12-11T07:18:41.568Z,0.40
2022-12-11T07:21:10.537Z,0.40
2022-12-11T07:23:38.086Z,0.40
2022-12-11T07:26:10.119Z,0.40
2022-12-11T07:28:37.578Z,0.40
2022-12-11T07:31:09.311Z,0.50
2022-12-11T07:33:36.755Z,0.50
2022-12-11T07:36:06.235Z,0.50
2022-12-11T07:38:33.844Z,0.50
2022-12-11T07:41:02.674Z,0.50
2022-12-11T07:43:29.867Z,0.50
2022-12-11T07:46:04.759Z,0.50
2022-12-11T07:48:31.965Z,0.50
2022-12-11T07:51:12.065Z,0.50
2022-12-11T07:53:39.390Z,0.50
2022-12-11T07:56:07.064Z,0.50
2022-12-11T07:58:34.607Z,0.50
2022-12-11T08:01:01.752Z,0.50
2022-12-11T08:03:29.028Z,0.60
2022-12-11T08:05:56.164Z,0.60
2022-12-11T08:08:23.363Z,0.70
2022-12-11T08:10:50.555Z,0.70
2022-12-11T08:15:58.934Z,0.70
2022-12-11T08:18:26.128Z,0.70
2022-12-11T08:20:53.331Z,0.60
2022-12-11T08:23:20.435Z,0.70
2022-12-11T08:25:47.684Z,0.80
2022-12-11T08:28:14.831Z,0.80
2022-12-11T08:30:42.150Z,0.90
2022-12-11T08:33:09.366Z,0.90
2022-12-11T08:35:40.004Z,1.00
2022-12-11T08:38:07.156Z,1.10
2022-12-11T08:40:34.384Z,1.10
2022-12-11T08:43:01.485Z,1.10
2022-12-11T08:45:28.724Z,1.10
2022-12-11T08:47:55.894Z,1.10
2022-12-11T08:50:23.109Z,1.10
2022-12-11T08:52:50.325Z,1.10
2022-12-11T08:55:17.705Z,1.10
2022-12-11T08:57:46.470Z,1.20
2022-12-11T09:00:15.494Z,1.20
2022-12-11T09:02:42.726Z,1.20
2022-12-11T09:05:10.570Z,1.30
2022-12-11T09:07:39.502Z,1.20
2022-12-11T09:10:07.665Z,1.20
2022-12-11T09:12:35.364Z,1.30
2022-12-11T09:15:02.705Z,1.30
2022-12-11T09:17:30.034Z,1.20
2022-12-11T09:19:57.224Z,1.20
2022-12-11T09:22:24.349Z,1.20
2022-12-11T09:24:51.564Z,1.20
2022-12-11T09:27:21.345Z,1.20
2022-12-11T09:29:48.632Z,1.20
2022-12-11T09:32:15.834Z,1.20
2022-12-11T09:34:43.075Z,1.20
2022-12-11T09:37:10.174Z,1.20
2022-12-11T09:39:37.384Z,1.20
2022-12-11T09:45:04.644Z,1.20
2022-12-11T09:47:50.234Z,1.30
2022-12-11T09:50:25.411Z,1.40
2022-12-11T09:53:08.923Z,1.40
2022-12-11T09:56:10.934Z,1.50
2022-12-11T09:58:52.715Z,1.60
2022-12-11T10:01:35.956Z,1.60
2022-12-11T10:04:13.477Z,1.60
2022-12-11T10:07:09.755Z,1.70
2022-12-11T10:10:01.274Z,1.70
2022-12-11T10:13:05.056Z,1.70
2022-12-11T10:15:49.401Z,1.60
2022-12-11T10:18:21.474Z,1.60
2022-12-11T10:20:51.426Z,1.60
2022-12-11T10:23:43.376Z,1.60
2022-12-11T10:26:29.777Z,1.60
2022-12-11T10:29:00.765Z,1.60
2022-12-11T10:31:54.576Z,1.50
2022-12-11T10:34:44.385Z,1.50
2022-12-11T10:37:11.629Z,1.50
2022-12-11T10:39:38.735Z,1.60
2022-12-11T10:42:19.474Z,1.60
2022-12-11T10:45:02.185Z,1.70
2022-12-11T10:47:30.004Z,1.80
2022-12-11T10:50:00.459Z,1.80
2022-12-11T10:52:53.366Z,1.80
2022-12-11T10:55:37.754Z,1.80
2022-12-11T10:58:06.823Z,1.90
2022-12-11T11:00:39.736Z,1.90
2022-12-11T11:03:26.525Z,2.00
2022-12-11T11:06:15.136Z,2.10
2022-12-11T11:08:45.685Z,2.10
2022-12-11T11:11:37.115Z,2.10
2022-12-11T11:14:20.485Z,2.20
2022-12-11T11:16:50.374Z,2.40
2022-12-11T11:19:34.246Z,2.40
2022-12-11T11:22:07.216Z,2.50
2022-12-11T11:24:41.967Z,2.50
2022-12-11T11:27:26.604Z,2.50
2022-12-11T11:29:56.964Z,2.50
2022-12-11T11:35:27.404Z,2.70
2022-12-11T11:38:22.565Z,2.80
2022-12-11T11:41:15.237Z,2.90
2022-12-11T11:43:59.566Z,2.90
2022-12-11T11:46:32.337Z,3.00
2022-12-11T11:49:24.366Z,3.10
2022-12-11T11:51:56.914Z,3.10
2022-12-11T11:55:21.677Z,3.20
2022-12-11T11:58:02.353Z,3.30
2022-12-11T12:00:33.937Z,3.40
2022-12-11T12:03:06.313Z,3.50
2022-12-11T12:05:41.918Z,3.70
2022-12-11T12:08:32.163Z,3.80
2022-12-11T12:11:20.645Z,3.80
2022-12-11T12:13:55.794Z,3.80
2022-12-11T12:17:06.344Z,3.90
2022-12-11T12:20:23.684Z,4.00
2022-12-11T12:22:59.698Z,3.90
2022-12-11T12:25:45.277Z,3.90
2022-12-11T12:28:56.774Z,3.90
2022-12-11T12:31:24.000Z,3.90
2022-12-11T12:34:11.406Z,3.90
2022-12-11T12:37:01.425Z,3.90
2022-12-11T12:39:34.535Z,4.00
2022-12-11T12:42:30.975Z,4.00
2022-12-11T12:45:09.237Z,4.00
2022-12-11T12:47:36.917Z,3.90
2022-12-11T12:50:10.566Z,4.00
2022-12-11T12:52:40.204Z,4.00
2022-12-11T12:55:32.033Z,4.20
2022-12-11T12:58:01.975Z,4.30
2022-12-11T13:00:43.958Z,4.40
2022-12-11T13:03:23.224Z,4.40
2022-12-11T13:06:00.446Z,4.40
2022-12-11T13:08:31.141Z,4.30
2022-12-11T13:11:10.346Z,4.40
2022-12-11T13:13:43.595Z,4.50
2022-12-11T13:16:16.748Z,4.60
2022-12-11T13:18:47.589Z,4.70
2022-12-11T13:21:31.977Z,4.90
2022-12-11T13:24:16.775Z,4.90
2022-12-11T13:26:44.245Z,4.90
2022-12-11T13:29:31.315Z,4.90
2022-12-11T13:32:02.032Z,4.90
2022-12-11T13:34:33.863Z,4.90
2022-12-11T13:37:03.002Z,4.90
2022-12-11T13:39:35.218Z,5.10
2022-12-11T13:42:06.474Z,5.20
2022-12-11T13:44:46.734Z,5.20
2022-12-11T13:47:17.402Z,5.20
2022-12-11T13:49:48.094Z,5.10
2022-12-11T13:52:19.364Z,5.10
2022-12-11T13:54:54.063Z,5.20
2022-12-11T13:57:26.013Z,5.20
2022-12-11T13:59:56.506Z,5.20
2022-12-11T14:02:32.059Z,5.20
2022-12-11T14:05:06.445Z,5.20
2022-12-11T14:07:40.533Z,5.20
2022-12-11T14:10:18.793Z,5.10
2022-12-11T14:15:48.921Z,5.10
2022-12-11T14:18:22.974Z,5.00
2022-12-11T14:21:01.654Z,4.90
2022-12-11T14:23:34.592Z,4.80
2022-12-11T14:26:18.323Z,4.80
2022-12-11T14:28:45.572Z,4.80
2022-12-11T14:31:23.915Z,4.80
2022-12-11T14:34:20.854Z,4.80
2022-12-11T14:36:49.184Z,4.90
2022-12-11T14:39:22.114Z,4.90
2022-12-11T14:42:02.053Z,4.80
2022-12-11T14:44:35.284Z,4.70
2022-12-11T14:47:12.953Z,4.70
2022-12-11T14:49:52.963Z,4.60
2022-12-11T14:52:29.375Z,4.60
2022-12-11T14:55:25.334Z,4.60
2022-12-11T14:57:59.308Z,4.60
2022-12-11T15:00:30.383Z,4.60
2022-12-11T15:03:03.877Z,4.50
2022-12-11T15:05:38.861Z,4.50
2022-12-11T15:08:10.920Z,4.50
2022-12-11T15:10:42.414Z,4.50
2022-12-11T15:13:10.396Z,4.50
2022-12-11T15:18:33.832Z,4.40
2022-12-11T15:21:05.334Z,4.30
2022-12-11T15:23:37.714Z,4.30
2022-12-11T15:26:05.064Z,4.20
2022-12-11T15:31:25.644Z,4.20
2022-12-11T15:33:53.035Z,4.30
2022-12-11T15:36:35.718Z,4.20
2022-12-11T15:39:05.924Z,4.20
2022-12-11T15:41:33.380Z,4.20
2022-12-11T15:44:03.203Z,4.20
2022-12-11T15:46:35.267Z,4.20
2022-12-11T15:49:02.424Z,4.20
2022-12-11T15:51:29.558Z,4.20
2022-12-11T15:57:02.425Z,4.20
2022-12-11T15:59:58.325Z,4.10
2022-12-11T16:02:49.407Z,4.10
2022-12-11T16:05:34.993Z,4.00
2022-12-11T16:08:34.311Z,4.00
2022-12-11T16:13:59.073Z,3.90
2022-12-11T16:16:32.294Z,3.80
2022-12-11T16:19:20.834Z,3.80
2022-12-11T16:22:22.294Z,3.80
2022-12-11T16:25:38.564Z,3.80
2022-12-11T16:28:39.803Z,3.70
2022-12-11T16:31:24.908Z,3.60
2022-12-11T16:33:55.026Z,3.50
2022-12-11T16:39:40.022Z,3.40
2022-12-11T16:42:40.165Z,3.40
2022-12-11T16:45:36.620Z,3.30
2022-12-11T16:48:27.183Z,3.20
2022-12-11T16:50:57.884Z,3.20
2022-12-11T16:54:05.126Z,3.00
2022-12-11T16:56:32.314Z,2.80
2022-12-11T17:00:07.819Z,2.60
2022-12-11T17:02:36.210Z,2.40
2022-12-11T17:05:04.534Z,2.20
2022-12-11T17:07:33.403Z,2.20
2022-12-11T17:10:02.969Z,2.10
2022-12-11T17:12:39.293Z,2.20
2022-12-11T17:15:07.284Z,2.20
2022-12-11T17:17:34.652Z,2.30
2022-12-11T17:20:44.892Z,2.30
2022-12-11T17:23:50.679Z,2.30
2022-12-11T17:26:51.238Z,2.30
2022-12-11T17:29:30.831Z,2.20
2022-12-11T17:31:58.459Z,2.00
2022-12-11T17:34:25.828Z,1.90
2022-12-11T17:36:53.141Z,1.70
2022-12-11T17:39:38.151Z,1.70
2022-12-11T17:42:05.795Z,1.70
2022-12-11T17:44:32.946Z,1.70
2022-12-11T17:47:00.227Z,1.70
2022-12-11T17:49:27.648Z,1.80
2022-12-11T17:51:55.586Z,1.80
2022-12-11T17:54:23.849Z,1.80
2022-12-11T17:56:51.319Z,1.80
2022-12-11T17:59:18.666Z,1.80
2022-12-11T18:01:46.372Z,1.80
2022-12-11T18:04:13.843Z,1.70
2022-12-11T18:06:41.241Z,1.70
2022-12-11T18:09:08.622Z,1.60
2022-12-11T18:11:35.895Z,1.60
2022-12-11T18:14:03.675Z,1.60
2022-12-11T18:16:35.872Z,1.60
2022-12-11T18:19:03.156Z,1.70
2022-12-11T18:21:33.005Z,1.70
2022-12-11T18:24:01.556Z,1.60
2022-12-11T18:26:29.255Z,1.60
2022-12-11T18:28:56.553Z,1.50
2022-12-11T18:31:24.009Z,1.60
2022-12-11T18:33:52.485Z,1.50
2022-12-11T18:36:21.127Z,1.50
2022-12-11T18:38:48.981Z,1.50
2022-12-11T18:41:17.596Z,1.50
2022-12-11T18:43:44.986Z,1.50
2022-12-11T18:46:15.387Z,1.40
2022-12-11T18:48:43.709Z,1.40
2022-12-11T18:51:15.368Z,1.40
2022-12-11T18:53:42.616Z,1.40
2022-12-11T18:56:16.396Z,1.40
2022-12-11T18:58:44.685Z,1.40
2022-12-11T19:01:21.276Z,1.40
2022-12-11T19:03:49.226Z,1.40
2022-12-11T19:06:19.155Z,1.40
2022-12-11T19:08:46.925Z,1.40
2022-12-11T19:11:19.059Z,1.40
2022-12-11T19:13:46.845Z,1.40
2022-12-11T19:16:24.152Z,1.30
2022-12-11T19:18:51.846Z,1.30
2022-12-11T19:21:19.636Z,1.20
2022-12-11T19:23:47.454Z,1.20
2022-12-11T19:26:18.023Z,1.20
2022-12-11T19:28:46.676Z,1.30
2022-12-11T19:31:20.646Z,1.30
2022-12-11T19:33:48.593Z,1.30
2022-12-11T19:36:21.765Z,1.40
2022-12-11T19:38:49.145Z,1.40
2022-12-11T19:41:23.374Z,1.50
2022-12-11T19:43:51.293Z,1.50
2022-12-11T19:46:19.152Z,1.50
2022-12-11T19:48:49.214Z,1.50
2022-12-11T19:51:33.714Z,1.60
2022-12-11T19:54:04.826Z,1.60
2022-12-11T19:56:33.268Z,1.70
2022-12-11T19:59:06.652Z,1.70
2022-12-11T20:01:36.114Z,1.80
2022-12-11T20:04:10.364Z,1.80
2022-12-11T20:06:41.085Z,1.80
2022-12-11T20:09:11.068Z,1.80
2022-12-11T20:11:39.954Z,1.80
2022-12-11T20:14:07.726Z,1.80
2022-12-11T20:17:08.796Z,1.80
2022-12-11T20:19:22.255Z,1.70
2022-12-11T20:21:49.405Z,1.70
2022-12-11T20:24:16.545Z,1.70
2022-12-11T20:26:43.976Z,1.60
2022-12-11T20:29:13.176Z,1.60
2022-12-11T20:31:40.596Z,1.60
2022-12-11T20:34:08.097Z,1.60
2022-12-11T20:36:35.491Z,1.60
2022-12-11T20:39:02.977Z,1.60
2022-12-11T20:41:30.135Z,1.60
2022-12-11T20:43:57.425Z,1.50
2022-12-11T20:46:28.126Z,1.50
2022-12-11T20:48:58.777Z,1.50
2022-12-11T20:51:28.149Z,1.40
2022-12-11T20:53:59.712Z,1.40
2022-12-11T20:56:30.099Z,1.40
2022-12-11T20:58:58.812Z,1.40
2022-12-11T21:01:29.071Z,1.40
2022-12-11T21:03:56.766Z,1.50
2022-12-11T21:06:25.969Z,1.50
2022-12-11T21:08:53.847Z,1.50
2022-12-11T21:11:21.225Z,1.50
2022-12-11T21:13:51.805Z,1.50
2022-12-11T21:16:19.746Z,1.50
2022-12-11T21:18:47.405Z,1.50
2022-12-11T21:21:15.496Z,1.50
2022-12-11T21:23:42.825Z,1.50
2022-12-11T21:26:10.206Z,1.60
2022-12-11T21:28:37.306Z,1.60
2022-12-11T21:31:08.795Z,1.60
2022-12-11T21:33:36.534Z,1.60
2022-12-11T21:36:06.087Z,1.50
2022-12-11T21:38:33.585Z,1.50
2022-12-11T21:41:13.808Z,1.40
2022-12-11T21:44:12.965Z,1.40
2022-12-11T21:46:30.084Z,1.40
2022-12-11T21:48:57.210Z,1.50
2022-12-11T21:51:36.141Z,1.50
2022-12-11T21:54:06.866Z,1.50
2022-12-11T21:56:34.146Z,1.60
2022-12-11T21:59:01.795Z,1.60
2022-12-11T22:01:36.182Z,1.50
2022-12-11T22:04:05.305Z,1.50
2022-12-11T22:06:32.784Z,1.50
2022-12-11T22:09:00.176Z,1.50
2022-12-11T22:11:30.225Z,1.40
2022-12-11T22:13:57.424Z,1.30
2022-12-11T22:16:24.769Z,1.20
2022-12-11T22:18:53.339Z,1.10
2022-12-11T22:21:20.819Z,1.10
2022-12-11T22:23:48.566Z,1.10
2022-12-11T22:26:23.193Z,1.00
2022-12-11T22:28:50.984Z,1.00
2022-12-11T22:31:21.472Z,0.90
2022-12-11T22:33:56.284Z,1.00
2022-12-11T22:36:26.125Z,1.00
2022-12-11T22:38:53.609Z,1.10
2022-12-11T22:41:29.416Z,1.20
2022-12-11T22:43:57.805Z,1.30
2022-12-11T22:46:27.656Z,1.40
2022-12-11T22:48:55.496Z,1.40
2022-12-11T22:51:23.144Z,1.40
2022-12-11T22:53:50.490Z,1.40
2022-12-11T22:56:18.025Z,1.40
2022-12-11T22:58:45.624Z,1.40
2022-12-11T23:01:15.965Z,1.50
2022-12-11T23:03:43.354Z,1.50
2022-12-11T23:06:12.925Z,1.50
2022-12-11T23:08:41.366Z,1.50
2022-12-11T23:11:13.962Z,1.50
2022-12-11T23:13:41.886Z,1.50
2022-12-11T23:16:09.838Z,1.50
2022-12-11T23:18:37.736Z,1.60
2022-12-11T23:21:06.727Z,1.60
2022-12-11T23:23:33.948Z,1.50
2022-12-11T23:26:01.817Z,1.40
2022-12-11T23:28:29.209Z,1.30
2022-12-11T23:30:56.428Z,1.20
2022-12-11T23:33:23.711Z,1.10
2022-12-11T23:35:50.906Z,1.10
2022-12-11T23:41:01.354Z,1.00
2022-12-11T23:43:28.689Z,0.90
2022-12-11T23:45:57.135Z,0.80
2022-12-11T23:48:24.354Z,0.80
2022-12-11T23:50:51.632Z,0.80
2022-12-11T23:56:05.864Z,0.80
2022-12-11T23:58:35.735Z,0.90
